sensor_id;sensor_type;location;lat;lon;timestamp;P1;durP1;ratioP1;P2;durP2;ratioP2
53253;SDS011;39148;53.332;6.922;2023-07-20T00:01:15;1.35;;;0.38;;
53253;SDS011;39148;53.332;6.922;2023-07-20T00:03:41;1.38;;;0.40;;
53253;SDS011;39148;53.332;6.922;2023-07-20T00:06:07;1.48;;;0.45;;
53253;SDS011;39148;53.332;6.922;2023-07-20T00:08:32;1.25;;;0.50;;
53253;SDS011;39148;53.332;6.922;2023-07-20T00:10:58;1.63;;;0.50;;
53253;SDS011;39148;53.332;6.922;2023-07-20T00:13:24;3.13;;;0.50;;
53253;SDS011;39148;53.332;6.922;2023-07-20T00:15:50;0.98;;;0.30;;
53253;SDS011;39148;53.332;6.922;2023-07-20T00:18:17;1.25;;;0.40;;
53253;SDS011;39148;53.332;6.922;2023-07-20T00:20:44;1.42;;;0.40;;
53253;SDS011;39148;53.332;6.922;2023-07-20T00:23:10;1.88;;;0.57;;
53253;SDS011;39148;53.332;6.922;2023-07-20T00:25:35;1.48;;;0.43;;
53253;SDS011;39148;53.332;6.922;2023-07-20T00:28:01;1.55;;;0.40;;
53253;SDS011;39148;53.332;6.922;2023-07-20T00:30:27;1.13;;;0.40;;
53253;SDS011;39148;53.332;6.922;2023-07-20T00:32:53;1.08;;;0.40;;
53253;SDS011;39148;53.332;6.922;2023-07-20T00:35:18;1.40;;;0.47;;
53253;SDS011;39148;53.332;6.922;2023-07-20T00:37:44;1.05;;;0.40;;
53253;SDS011;39148;53.332;6.922;2023-07-20T00:40:10;1.48;;;0.52;;
53253;SDS011;39148;53.332;6.922;2023-07-20T00:42:35;1.58;;;0.47;;
53253;SDS011;39148;53.332;6.922;2023-07-20T00:45:01;1.63;;;0.45;;
53253;SDS011;39148;53.332;6.922;2023-07-20T00:47:27;0.95;;;0.40;;
53253;SDS011;39148;53.332;6.922;2023-07-20T00:49:53;1.92;;;0.40;;
53253;SDS011;39148;53.332;6.922;2023-07-20T00:52:20;1.15;;;0.50;;
53253;SDS011;39148;53.332;6.922;2023-07-20T00:54:48;0.98;;;0.40;;
53253;SDS011;39148;53.332;6.922;2023-07-20T00:57:15;1.00;;;0.40;;
53253;SDS011;39148;53.332;6.922;2023-07-20T00:59:42;1.17;;;0.47;;
53253;SDS011;39148;53.332;6.922;2023-07-20T01:02:08;0.70;;;0.30;;
53253;SDS011;39148;53.332;6.922;2023-07-20T01:04:34;0.50;;;0.30;;
53253;SDS011;39148;53.332;6.922;2023-07-20T01:07:03;1.73;;;0.40;;
53253;SDS011;39148;53.332;6.922;2023-07-20T01:09:50;1.08;;;0.47;;
53253;SDS011;39148;53.332;6.922;2023-07-20T01:12:26;1.77;;;0.40;;
53253;SDS011;39148;53.332;6.922;2023-07-20T01:14:57;0.88;;;0.40;;
53253;SDS011;39148;53.332;6.922;2023-07-20T01:17:22;1.00;;;0.47;;
53253;SDS011;39148;53.332;6.922;2023-07-20T01:19:49;0.77;;;0.40;;
53253;SDS011;39148;53.332;6.922;2023-07-20T01:22:29;1.38;;;0.45;;
53253;SDS011;39148;53.332;6.922;2023-07-20T01:30:45;1.25;;;0.43;;
53253;SDS011;39148;53.332;6.922;2023-07-20T01:33:11;1.27;;;0.45;;
53253;SDS011;39148;53.332;6.922;2023-07-20T01:35:39;1.20;;;0.43;;
53253;SDS011;39148;53.332;6.922;2023-07-20T01:38:09;2.45;;;0.65;;
53253;SDS011;39148;53.332;6.922;2023-07-20T01:40:36;0.65;;;0.40;;
53253;SDS011;39148;53.332;6.922;2023-07-20T01:43:02;2.38;;;0.50;;
53253;SDS011;39148;53.332;6.922;2023-07-20T01:45:28;2.47;;;0.55;;
53253;SDS011;39148;53.332;6.922;2023-07-20T01:47:54;0.93;;;0.30;;
53253;SDS011;39148;53.332;6.922;2023-07-20T01:50:19;2.22;;;0.50;;
53253;SDS011;39148;53.332;6.922;2023-07-20T01:52:45;1.70;;;0.50;;
53253;SDS011;39148;53.332;6.922;2023-07-20T01:55:10;2.85;;;0.40;;
53253;SDS011;39148;53.332;6.922;2023-07-20T01:57:36;1.40;;;0.40;;
53253;SDS011;39148;53.332;6.922;2023-07-20T02:00:03;3.10;;;0.40;;
53253;SDS011;39148;53.332;6.922;2023-07-20T02:02:29;0.60;;;0.32;;
53253;SDS011;39148;53.332;6.922;2023-07-20T02:04:54;1.98;;;0.55;;
53253;SDS011;39148;53.332;6.922;2023-07-20T02:07:20;1.88;;;0.40;;
53253;SDS011;39148;53.332;6.922;2023-07-20T02:09:46;0.65;;;0.30;;
53253;SDS011;39148;53.332;6.922;2023-07-20T02:12:11;1.13;;;0.30;;
53253;SDS011;39148;53.332;6.922;2023-07-20T02:14:37;0.85;;;0.35;;
53253;SDS011;39148;53.332;6.922;2023-07-20T02:17:04;1.75;;;0.45;;
53253;SDS011;39148;53.332;6.922;2023-07-20T02:19:30;0.90;;;0.38;;
53253;SDS011;39148;53.332;6.922;2023-07-20T02:21:55;2.35;;;0.35;;
53253;SDS011;39148;53.332;6.922;2023-07-20T02:24:21;1.15;;;0.52;;
53253;SDS011;39148;53.332;6.922;2023-07-20T02:26:47;1.27;;;0.20;;
53253;SDS011;39148;53.332;6.922;2023-07-20T02:29:12;3.20;;;0.50;;
53253;SDS011;39148;53.332;6.922;2023-07-20T02:31:38;1.25;;;0.40;;
53253;SDS011;39148;53.332;6.922;2023-07-20T02:34:05;1.60;;;0.43;;
53253;SDS011;39148;53.332;6.922;2023-07-20T02:36:31;3.38;;;0.88;;
53253;SDS011;39148;53.332;6.922;2023-07-20T02:39:00;1.20;;;0.40;;
53253;SDS011;39148;53.332;6.922;2023-07-20T02:41:29;1.35;;;0.40;;
53253;SDS011;39148;53.332;6.922;2023-07-20T02:43:55;1.65;;;0.40;;
53253;SDS011;39148;53.332;6.922;2023-07-20T02:46:22;1.73;;;0.40;;
53253;SDS011;39148;53.332;6.922;2023-07-20T02:48:47;3.50;;;0.50;;
53253;SDS011;39148;53.332;6.922;2023-07-20T02:51:13;2.72;;;0.50;;
53253;SDS011;39148;53.332;6.922;2023-07-20T02:53:39;3.60;;;0.40;;
53253;SDS011;39148;53.332;6.922;2023-07-20T02:56:04;1.23;;;0.32;;
53253;SDS011;39148;53.332;6.922;2023-07-20T02:58:30;1.48;;;0.30;;
53253;SDS011;39148;53.332;6.922;2023-07-20T03:00:56;1.58;;;0.40;;
53253;SDS011;39148;53.332;6.922;2023-07-20T03:03:21;2.22;;;0.40;;
53253;SDS011;39148;53.332;6.922;2023-07-20T03:05:47;1.52;;;0.30;;
53253;SDS011;39148;53.332;6.922;2023-07-20T03:08:19;1.17;;;0.40;;
53253;SDS011;39148;53.332;6.922;2023-07-20T03:10:45;1.23;;;0.40;;
53253;SDS011;39148;53.332;6.922;2023-07-20T03:13:11;1.77;;;0.50;;
53253;SDS011;39148;53.332;6.922;2023-07-20T03:15:37;2.72;;;0.40;;
53253;SDS011;39148;53.332;6.922;2023-07-20T03:18:03;1.75;;;0.43;;
53253;SDS011;39148;53.332;6.922;2023-07-20T03:20:29;1.17;;;0.35;;
53253;SDS011;39148;53.332;6.922;2023-07-20T03:22:56;1.73;;;0.70;;
53253;SDS011;39148;53.332;6.922;2023-07-20T03:25:21;1.90;;;0.32;;
53253;SDS011;39148;53.332;6.922;2023-07-20T03:27:47;1.27;;;0.30;;
53253;SDS011;39148;53.332;6.922;2023-07-20T03:30:13;3.35;;;0.40;;
53253;SDS011;39148;53.332;6.922;2023-07-20T03:32:39;3.47;;;0.55;;
53253;SDS011;39148;53.332;6.922;2023-07-20T03:35:05;1.98;;;0.30;;
53253;SDS011;39148;53.332;6.922;2023-07-20T03:37:31;3.20;;;0.35;;
53253;SDS011;39148;53.332;6.922;2023-07-20T03:39:57;1.65;;;0.73;;
53253;SDS011;39148;53.332;6.922;2023-07-20T03:42:23;1.98;;;0.40;;
53253;SDS011;39148;53.332;6.922;2023-07-20T03:44:48;1.40;;;0.22;;
53253;SDS011;39148;53.332;6.922;2023-07-20T03:47:15;1.95;;;0.70;;
53253;SDS011;39148;53.332;6.922;2023-07-20T03:49:41;1.17;;;0.30;;
53253;SDS011;39148;53.332;6.922;2023-07-20T03:52:07;2.20;;;0.40;;
53253;SDS011;39148;53.332;6.922;2023-07-20T03:54:32;3.70;;;0.25;;
53253;SDS011;39148;53.332;6.922;2023-07-20T03:56:58;3.70;;;0.40;;
53253;SDS011;39148;53.332;6.922;2023-07-20T03:59:24;2.35;;;0.43;;
53253;SDS011;39148;53.332;6.922;2023-07-20T04:01:49;2.92;;;0.40;;
53253;SDS011;39148;53.332;6.922;2023-07-20T04:04:15;2.10;;;0.30;;
53253;SDS011;39148;53.332;6.922;2023-07-20T04:06:42;2.30;;;0.50;;
53253;SDS011;39148;53.332;6.922;2023-07-20T04:09:09;2.25;;;0.30;;
53253;SDS011;39148;53.332;6.922;2023-07-20T04:11:36;2.05;;;0.30;;
53253;SDS011;39148;53.332;6.922;2023-07-20T04:14:01;1.70;;;0.50;;
53253;SDS011;39148;53.332;6.922;2023-07-20T04:16:27;2.22;;;0.70;;
53253;SDS011;39148;53.332;6.922;2023-07-20T04:18:56;6.55;;;0.73;;
53253;SDS011;39148;53.332;6.922;2023-07-20T04:21:22;2.47;;;0.43;;
53253;SDS011;39148;53.332;6.922;2023-07-20T04:23:48;2.72;;;0.50;;
53253;SDS011;39148;53.332;6.922;2023-07-20T04:26:14;3.58;;;0.50;;
53253;SDS011;39148;53.332;6.922;2023-07-20T04:28:40;3.03;;;0.38;;
53253;SDS011;39148;53.332;6.922;2023-07-20T04:31:14;1.13;;;0.40;;
53253;SDS011;39148;53.332;6.922;2023-07-20T04:33:41;3.83;;;0.85;;
53253;SDS011;39148;53.332;6.922;2023-07-20T04:36:06;1.50;;;0.40;;
53253;SDS011;39148;53.332;6.922;2023-07-20T04:38:33;1.67;;;0.38;;
53253;SDS011;39148;53.332;6.922;2023-07-20T04:40:59;2.70;;;0.40;;
53253;SDS011;39148;53.332;6.922;2023-07-20T04:43:24;3.50;;;0.60;;
53253;SDS011;39148;53.332;6.922;2023-07-20T04:45:51;2.72;;;0.50;;
53253;SDS011;39148;53.332;6.922;2023-07-20T04:48:17;1.05;;;0.32;;
53253;SDS011;39148;53.332;6.922;2023-07-20T04:50:44;1.88;;;0.40;;
53253;SDS011;39148;53.332;6.922;2023-07-20T04:53:10;2.00;;;0.50;;
53253;SDS011;39148;53.332;6.922;2023-07-20T04:55:37;1.88;;;0.38;;
53253;SDS011;39148;53.332;6.922;2023-07-20T04:58:04;1.63;;;0.60;;
53253;SDS011;39148;53.332;6.922;2023-07-20T05:00:31;2.40;;;0.40;;
53253;SDS011;39148;53.332;6.922;2023-07-20T05:02:57;4.28;;;0.65;;
53253;SDS011;39148;53.332;6.922;2023-07-20T05:05:23;1.05;;;0.30;;
53253;SDS011;39148;53.332;6.922;2023-07-20T05:07:49;2.22;;;0.40;;
53253;SDS011;39148;53.332;6.922;2023-07-20T05:10:14;1.65;;;0.50;;
53253;SDS011;39148;53.332;6.922;2023-07-20T05:12:40;1.88;;;0.45;;
53253;SDS011;39148;53.332;6.922;2023-07-20T05:15:06;1.63;;;0.38;;
53253;SDS011;39148;53.332;6.922;2023-07-20T05:17:32;4.22;;;0.60;;
53253;SDS011;39148;53.332;6.922;2023-07-20T05:19:57;1.92;;;0.30;;
53253;SDS011;39148;53.332;6.922;2023-07-20T05:22:23;2.65;;;0.40;;
53253;SDS011;39148;53.332;6.922;2023-07-20T05:24:49;2.83;;;0.40;;
53253;SDS011;39148;53.332;6.922;2023-07-20T05:27:15;3.03;;;0.55;;
53253;SDS011;39148;53.332;6.922;2023-07-20T05:29:44;2.58;;;0.60;;
53253;SDS011;39148;53.332;6.922;2023-07-20T05:32:11;3.15;;;0.50;;
53253;SDS011;39148;53.332;6.922;2023-07-20T05:34:37;3.72;;;0.45;;
53253;SDS011;39148;53.332;6.922;2023-07-20T05:37:03;2.10;;;0.38;;
53253;SDS011;39148;53.332;6.922;2023-07-20T05:39:29;1.98;;;0.43;;
53253;SDS011;39148;53.332;6.922;2023-07-20T05:41:54;1.63;;;0.35;;
53253;SDS011;39148;53.332;6.922;2023-07-20T05:44:20;2.42;;;0.50;;
53253;SDS011;39148;53.332;6.922;2023-07-20T05:46:46;1.05;;;0.30;;
53253;SDS011;39148;53.332;6.922;2023-07-20T05:49:11;2.20;;;0.50;;
53253;SDS011;39148;53.332;6.922;2023-07-20T05:51:37;1.38;;;0.40;;
53253;SDS011;39148;53.332;6.922;2023-07-20T05:54:03;4.00;;;0.75;;
53253;SDS011;39148;53.332;6.922;2023-07-20T05:56:28;2.33;;;0.40;;
53253;SDS011;39148;53.332;6.922;2023-07-20T05:58:54;2.63;;;0.52;;
53253;SDS011;39148;53.332;6.922;2023-07-20T06:01:20;4.03;;;0.50;;
53253;SDS011;39148;53.332;6.922;2023-07-20T06:03:45;2.72;;;0.47;;
53253;SDS011;39148;53.332;6.922;2023-07-20T06:06:11;6.07;;;0.77;;
53253;SDS011;39148;53.332;6.922;2023-07-20T06:08:38;4.75;;;0.45;;
53253;SDS011;39148;53.332;6.922;2023-07-20T06:11:03;3.75;;;0.60;;
53253;SDS011;39148;53.332;6.922;2023-07-20T06:13:29;4.53;;;0.50;;
53253;SDS011;39148;53.332;6.922;2023-07-20T06:15:55;4.90;;;0.60;;
53253;SDS011;39148;53.332;6.922;2023-07-20T06:18:23;3.42;;;0.47;;
53253;SDS011;39148;53.332;6.922;2023-07-20T06:20:52;5.00;;;0.50;;
53253;SDS011;39148;53.332;6.922;2023-07-20T06:23:18;3.60;;;1.40;;
53253;SDS011;39148;53.332;6.922;2023-07-20T06:25:44;4.63;;;0.45;;
53253;SDS011;39148;53.332;6.922;2023-07-20T06:28:10;4.40;;;0.70;;
53253;SDS011;39148;53.332;6.922;2023-07-20T06:30:36;4.30;;;0.70;;
53253;SDS011;39148;53.332;6.922;2023-07-20T06:33:02;3.58;;;0.90;;
53253;SDS011;39148;53.332;6.922;2023-07-20T06:35:28;2.95;;;0.68;;
53253;SDS011;39148;53.332;6.922;2023-07-20T06:37:54;2.08;;;0.68;;
53253;SDS011;39148;53.332;6.922;2023-07-20T06:40:21;2.75;;;0.50;;
53253;SDS011;39148;53.332;6.922;2023-07-20T06:42:46;7.15;;;1.25;;
53253;SDS011;39148;53.332;6.922;2023-07-20T06:45:12;2.08;;;0.60;;
53253;SDS011;39148;53.332;6.922;2023-07-20T06:47:38;2.55;;;0.90;;
53253;SDS011;39148;53.332;6.922;2023-07-20T06:50:05;2.58;;;0.60;;
53253;SDS011;39148;53.332;6.922;2023-07-20T06:52:32;4.68;;;0.73;;
53253;SDS011;39148;53.332;6.922;2023-07-20T06:54:58;4.30;;;0.80;;
53253;SDS011;39148;53.332;6.922;2023-07-20T06:57:24;2.78;;;0.80;;
53253;SDS011;39148;53.332;6.922;2023-07-20T06:59:50;3.13;;;0.75;;
53253;SDS011;39148;53.332;6.922;2023-07-20T07:02:16;3.45;;;0.80;;
53253;SDS011;39148;53.332;6.922;2023-07-20T07:04:42;3.25;;;0.70;;
53253;SDS011;39148;53.332;6.922;2023-07-20T07:07:07;3.67;;;0.70;;
53253;SDS011;39148;53.332;6.922;2023-07-20T07:09:34;3.92;;;0.90;;
53253;SDS011;39148;53.332;6.922;2023-07-20T07:12:00;3.22;;;0.85;;
53253;SDS011;39148;53.332;6.922;2023-07-20T07:14:26;4.47;;;0.93;;
53253;SDS011;39148;53.332;6.922;2023-07-20T07:16:51;2.88;;;1.08;;
53253;SDS011;39148;53.332;6.922;2023-07-20T07:19:17;3.10;;;1.08;;
53253;SDS011;39148;53.332;6.922;2023-07-20T07:21:43;3.50;;;0.90;;
53253;SDS011;39148;53.332;6.922;2023-07-20T07:24:09;3.72;;;1.05;;
53253;SDS011;39148;53.332;6.922;2023-07-20T07:26:35;3.90;;;1.25;;
53253;SDS011;39148;53.332;6.922;2023-07-20T07:29:02;5.00;;;1.25;;
53253;SDS011;39148;53.332;6.922;2023-07-20T07:31:29;4.47;;;1.20;;
53253;SDS011;39148;53.332;6.922;2023-07-20T07:33:55;7.50;;;1.40;;
53253;SDS011;39148;53.332;6.922;2023-07-20T07:36:22;4.45;;;0.95;;
53253;SDS011;39148;53.332;6.922;2023-07-20T07:38:49;5.88;;;1.17;;
53253;SDS011;39148;53.332;6.922;2023-07-20T07:41:15;3.45;;;1.20;;
53253;SDS011;39148;53.332;6.922;2023-07-20T07:43:41;5.63;;;1.42;;
53253;SDS011;39148;53.332;6.922;2023-07-20T07:46:07;3.30;;;1.10;;
53253;SDS011;39148;53.332;6.922;2023-07-20T07:48:33;6.47;;;1.33;;
53253;SDS011;39148;53.332;6.922;2023-07-20T07:50:59;4.45;;;1.40;;
53253;SDS011;39148;53.332;6.922;2023-07-20T07:53:24;4.20;;;1.17;;
53253;SDS011;39148;53.332;6.922;2023-07-20T07:55:51;4.40;;;1.10;;
53253;SDS011;39148;53.332;6.922;2023-07-20T07:58:18;3.35;;;1.23;;
53253;SDS011;39148;53.332;6.922;2023-07-20T08:00:43;5.47;;;1.13;;
53253;SDS011;39148;53.332;6.922;2023-07-20T08:03:09;7.22;;;1.20;;
53253;SDS011;39148;53.332;6.922;2023-07-20T08:05:35;5.53;;;1.40;;
53253;SDS011;39148;53.332;6.922;2023-07-20T08:08:02;6.35;;;1.33;;
53253;SDS011;39148;53.332;6.922;2023-07-20T08:10:29;3.55;;;1.10;;
53253;SDS011;39148;53.332;6.922;2023-07-20T08:12:55;5.20;;;1.23;;
53253;SDS011;39148;53.332;6.922;2023-07-20T08:15:21;3.42;;;1.00;;
53253;SDS011;39148;53.332;6.922;2023-07-20T08:17:46;4.75;;;1.05;;
53253;SDS011;39148;53.332;6.922;2023-07-20T08:20:13;5.35;;;1.33;;
53253;SDS011;39148;53.332;6.922;2023-07-20T08:22:39;7.70;;;1.42;;
53253;SDS011;39148;53.332;6.922;2023-07-20T08:25:05;4.90;;;1.23;;
53253;SDS011;39148;53.332;6.922;2023-07-20T08:27:32;4.03;;;1.00;;
53253;SDS011;39148;53.332;6.922;2023-07-20T08:29:57;4.95;;;1.10;;
53253;SDS011;39148;53.332;6.922;2023-07-20T08:32:23;3.30;;;0.93;;
53253;SDS011;39148;53.332;6.922;2023-07-20T08:34:49;5.95;;;1.00;;
53253;SDS011;39148;53.332;6.922;2023-07-20T08:37:14;3.83;;;0.95;;
53253;SDS011;39148;53.332;6.922;2023-07-20T08:39:40;5.28;;;1.48;;
53253;SDS011;39148;53.332;6.922;2023-07-20T08:42:06;5.78;;;1.08;;
53253;SDS011;39148;53.332;6.922;2023-07-20T08:44:32;6.32;;;1.20;;
53253;SDS011;39148;53.332;6.922;2023-07-20T08:47:00;5.10;;;0.98;;
53253;SDS011;39148;53.332;6.922;2023-07-20T08:49:27;1.88;;;0.70;;
53253;SDS011;39148;53.332;6.922;2023-07-20T08:51:54;2.58;;;0.80;;
53253;SDS011;39148;53.332;6.922;2023-07-20T08:54:20;4.43;;;0.73;;
53253;SDS011;39148;53.332;6.922;2023-07-20T08:56:45;4.43;;;0.75;;
53253;SDS011;39148;53.332;6.922;2023-07-20T08:59:12;5.22;;;1.00;;
53253;SDS011;39148;53.332;6.922;2023-07-20T09:01:41;3.05;;;0.55;;
53253;SDS011;39148;53.332;6.922;2023-07-20T09:04:07;4.15;;;1.00;;
53253;SDS011;39148;53.332;6.922;2023-07-20T09:06:33;2.78;;;0.75;;
53253;SDS011;39148;53.332;6.922;2023-07-20T09:09:00;4.50;;;1.02;;
53253;SDS011;39148;53.332;6.922;2023-07-20T09:11:26;4.38;;;0.90;;
53253;SDS011;39148;53.332;6.922;2023-07-20T09:14:07;3.63;;;0.70;;
53253;SDS011;39148;53.332;6.922;2023-07-20T09:16:51;4.10;;;0.80;;
53253;SDS011;39148;53.332;6.922;2023-07-20T09:19:18;3.42;;;0.90;;
53253;SDS011;39148;53.332;6.922;2023-07-20T09:21:45;3.53;;;0.70;;
53253;SDS011;39148;53.332;6.922;2023-07-20T09:24:14;4.60;;;0.80;;
53253;SDS011;39148;53.332;6.922;2023-07-20T09:26:43;3.53;;;0.50;;
53253;SDS011;39148;53.332;6.922;2023-07-20T09:29:09;2.85;;;0.73;;
53253;SDS011;39148;53.332;6.922;2023-07-20T09:31:35;2.83;;;0.70;;
53253;SDS011;39148;53.332;6.922;2023-07-20T09:34:01;3.20;;;0.80;;
53253;SDS011;39148;53.332;6.922;2023-07-20T09:36:28;3.00;;;0.68;;
53253;SDS011;39148;53.332;6.922;2023-07-20T09:38:54;2.90;;;0.70;;
53253;SDS011;39148;53.332;6.922;2023-07-20T09:41:20;2.85;;;0.77;;
53253;SDS011;39148;53.332;6.922;2023-07-20T09:43:46;3.95;;;0.90;;
53253;SDS011;39148;53.332;6.922;2023-07-20T09:46:12;2.47;;;0.75;;
53253;SDS011;39148;53.332;6.922;2023-07-20T09:48:38;2.78;;;0.70;;
53253;SDS011;39148;53.332;6.922;2023-07-20T09:51:04;4.55;;;0.88;;
53253;SDS011;39148;53.332;6.922;2023-07-20T09:53:32;5.32;;;0.80;;
53253;SDS011;39148;53.332;6.922;2023-07-20T09:55:59;2.40;;;0.60;;
53253;SDS011;39148;53.332;6.922;2023-07-20T09:58:28;4.38;;;0.93;;
53253;SDS011;39148;53.332;6.922;2023-07-20T10:00:57;1.55;;;0.50;;
53253;SDS011;39148;53.332;6.922;2023-07-20T10:03:27;3.10;;;0.77;;
53253;SDS011;39148;53.332;6.922;2023-07-20T10:05:56;3.55;;;0.60;;
53253;SDS011;39148;53.332;6.922;2023-07-20T10:08:25;2.50;;;0.65;;
53253;SDS011;39148;53.332;6.922;2023-07-20T10:10:53;2.33;;;0.60;;
53253;SDS011;39148;53.332;6.922;2023-07-20T10:13:25;2.72;;;0.60;;
53253;SDS011;39148;53.332;6.922;2023-07-20T10:16:03;4.10;;;0.68;;
53253;SDS011;39148;53.332;6.922;2023-07-20T10:18:38;1.45;;;0.50;;
53253;SDS011;39148;53.332;6.922;2023-07-20T10:21:10;2.72;;;0.60;;
53253;SDS011;39148;53.332;6.922;2023-07-20T10:23:38;2.15;;;0.43;;
53253;SDS011;39148;53.332;6.922;2023-07-20T10:26:04;1.63;;;0.50;;
53253;SDS011;39148;53.332;6.922;2023-07-20T10:28:31;2.63;;;0.50;;
53253;SDS011;39148;53.332;6.922;2023-07-20T10:30:57;3.13;;;0.50;;
53253;SDS011;39148;53.332;6.922;2023-07-20T10:33:22;3.83;;;0.60;;
53253;SDS011;39148;53.332;6.922;2023-07-20T10:35:56;1.25;;;0.50;;
53253;SDS011;39148;53.332;6.922;2023-07-20T10:38:38;2.17;;;0.60;;
53253;SDS011;39148;53.332;6.922;2023-07-20T10:41:18;3.05;;;0.60;;
53253;SDS011;39148;53.332;6.922;2023-07-20T10:43:45;1.52;;;0.50;;
53253;SDS011;39148;53.332;6.922;2023-07-20T10:46:12;2.38;;;0.60;;
53253;SDS011;39148;53.332;6.922;2023-07-20T10:51:27;3.63;;;0.70;;
53253;SDS011;39148;53.332;6.922;2023-07-20T10:53:56;2.42;;;0.40;;
53253;SDS011;39148;53.332;6.922;2023-07-20T10:56:26;3.20;;;0.65;;
53253;SDS011;39148;53.332;6.922;2023-07-20T10:58:57;2.95;;;0.60;;
53253;SDS011;39148;53.332;6.922;2023-07-20T11:01:27;2.67;;;0.60;;
53253;SDS011;39148;53.332;6.922;2023-07-20T11:03:57;2.92;;;0.45;;
53253;SDS011;39148;53.332;6.922;2023-07-20T11:08:54;2.15;;;0.50;;
53253;SDS011;39148;53.332;6.922;2023-07-20T11:11:22;2.42;;;0.55;;
53253;SDS011;39148;53.332;6.922;2023-07-20T11:13:59;1.60;;;0.40;;
53253;SDS011;39148;53.332;6.922;2023-07-20T11:16:36;3.92;;;0.60;;
53253;SDS011;39148;53.332;6.922;2023-07-20T11:19:03;2.92;;;0.50;;
53253;SDS011;39148;53.332;6.922;2023-07-20T11:21:34;2.80;;;0.50;;
53253;SDS011;39148;53.332;6.922;2023-07-20T11:24:05;2.13;;;0.50;;
53253;SDS011;39148;53.332;6.922;2023-07-20T11:26:39;2.65;;;0.40;;
53253;SDS011;39148;53.332;6.922;2023-07-20T11:29:06;3.85;;;0.75;;
53253;SDS011;39148;53.332;6.922;2023-07-20T11:31:34;2.33;;;0.50;;
53253;SDS011;39148;53.332;6.922;2023-07-20T11:34:01;1.98;;;0.40;;
53253;SDS011;39148;53.332;6.922;2023-07-20T11:36:26;3.72;;;0.57;;
53253;SDS011;39148;53.332;6.922;2023-07-20T11:38:53;2.97;;;0.50;;
53253;SDS011;39148;53.332;6.922;2023-07-20T11:41:19;2.70;;;0.60;;
53253;SDS011;39148;53.332;6.922;2023-07-20T11:43:45;3.55;;;0.60;;
53253;SDS011;39148;53.332;6.922;2023-07-20T11:46:11;2.55;;;0.50;;
53253;SDS011;39148;53.332;6.922;2023-07-20T11:48:36;2.38;;;0.60;;
53253;SDS011;39148;53.332;6.922;2023-07-20T11:51:02;2.28;;;0.57;;
53253;SDS011;39148;53.332;6.922;2023-07-20T11:53:28;1.63;;;0.40;;
53253;SDS011;39148;53.332;6.922;2023-07-20T11:55:54;4.55;;;0.57;;
53253;SDS011;39148;53.332;6.922;2023-07-20T11:58:20;4.47;;;0.60;;
53253;SDS011;39148;53.332;6.922;2023-07-20T12:00:47;3.75;;;0.60;;
53253;SDS011;39148;53.332;6.922;2023-07-20T12:03:13;4.28;;;0.50;;
53253;SDS011;39148;53.332;6.922;2023-07-20T12:05:38;1.55;;;0.40;;
53253;SDS011;39148;53.332;6.922;2023-07-20T12:08:05;2.38;;;0.50;;
53253;SDS011;39148;53.332;6.922;2023-07-20T12:10:30;3.38;;;0.80;;
53253;SDS011;39148;53.332;6.922;2023-07-20T12:13:02;3.13;;;0.55;;
53253;SDS011;39148;53.332;6.922;2023-07-20T12:15:29;2.60;;;0.50;;
53253;SDS011;39148;53.332;6.922;2023-07-20T12:17:55;2.40;;;0.43;;
53253;SDS011;39148;53.332;6.922;2023-07-20T12:23:11;4.55;;;0.65;;
53253;SDS011;39148;53.332;6.922;2023-07-20T12:25:38;2.22;;;0.40;;
53253;SDS011;39148;53.332;6.922;2023-07-20T12:28:06;2.63;;;0.70;;
53253;SDS011;39148;53.332;6.922;2023-07-20T12:30:34;2.75;;;0.40;;
53253;SDS011;39148;53.332;6.922;2023-07-20T12:32:59;2.67;;;0.50;;
53253;SDS011;39148;53.332;6.922;2023-07-20T12:35:25;3.88;;;0.50;;
53253;SDS011;39148;53.332;6.922;2023-07-20T12:37:51;2.33;;;0.38;;
53253;SDS011;39148;53.332;6.922;2023-07-20T12:40:18;2.60;;;0.70;;
53253;SDS011;39148;53.332;6.922;2023-07-20T12:42:44;2.67;;;0.50;;
53253;SDS011;39148;53.332;6.922;2023-07-20T12:45:10;2.88;;;0.50;;
53253;SDS011;39148;53.332;6.922;2023-07-20T12:47:36;1.85;;;0.43;;
53253;SDS011;39148;53.332;6.922;2023-07-20T12:50:02;1.75;;;0.40;;
53253;SDS011;39148;53.332;6.922;2023-07-20T12:52:31;2.20;;;0.45;;
53253;SDS011;39148;53.332;6.922;2023-07-20T12:54:57;2.83;;;0.60;;
53253;SDS011;39148;53.332;6.922;2023-07-20T12:57:24;2.63;;;0.50;;
53253;SDS011;39148;53.332;6.922;2023-07-20T12:59:49;1.65;;;0.30;;
53253;SDS011;39148;53.332;6.922;2023-07-20T13:02:15;3.20;;;0.73;;
53253;SDS011;39148;53.332;6.922;2023-07-20T13:04:40;2.58;;;0.60;;
53253;SDS011;39148;53.332;6.922;2023-07-20T13:07:09;1.23;;;0.25;;
53253;SDS011;39148;53.332;6.922;2023-07-20T13:09:37;2.08;;;0.40;;
53253;SDS011;39148;53.332;6.922;2023-07-20T13:12:02;2.22;;;0.40;;
53253;SDS011;39148;53.332;6.922;2023-07-20T13:14:28;1.40;;;0.30;;
53253;SDS011;39148;53.332;6.922;2023-07-20T13:16:55;1.45;;;0.50;;
53253;SDS011;39148;53.332;6.922;2023-07-20T13:19:21;1.27;;;0.30;;
53253;SDS011;39148;53.332;6.922;2023-07-20T13:21:47;1.02;;;0.35;;
53253;SDS011;39148;53.332;6.922;2023-07-20T13:24:13;1.23;;;0.40;;
53253;SDS011;39148;53.332;6.922;2023-07-20T13:26:39;2.30;;;0.35;;
53253;SDS011;39148;53.332;6.922;2023-07-20T13:29:04;2.00;;;0.30;;
53253;SDS011;39148;53.332;6.922;2023-07-20T13:31:30;2.85;;;0.47;;
53253;SDS011;39148;53.332;6.922;2023-07-20T13:33:56;1.30;;;0.38;;
53253;SDS011;39148;53.332;6.922;2023-07-20T13:36:23;4.60;;;0.90;;
53253;SDS011;39148;53.332;6.922;2023-07-20T13:38:49;1.33;;;0.35;;
53253;SDS011;39148;53.332;6.922;2023-07-20T13:41:15;2.28;;;0.38;;
53253;SDS011;39148;53.332;6.922;2023-07-20T13:43:41;1.88;;;0.38;;
53253;SDS011;39148;53.332;6.922;2023-07-20T13:46:07;2.80;;;0.40;;
53253;SDS011;39148;53.332;6.922;2023-07-20T13:48:33;1.50;;;0.40;;
53253;SDS011;39148;53.332;6.922;2023-07-20T13:50:59;2.13;;;0.38;;
53253;SDS011;39148;53.332;6.922;2023-07-20T13:53:24;2.53;;;0.40;;
53253;SDS011;39148;53.332;6.922;2023-07-20T13:55:50;2.53;;;0.40;;
53253;SDS011;39148;53.332;6.922;2023-07-20T13:58:17;1.40;;;0.40;;
53253;SDS011;39148;53.332;6.922;2023-07-20T14:00:43;1.00;;;0.30;;
53253;SDS011;39148;53.332;6.922;2023-07-20T14:03:08;2.22;;;0.40;;
53253;SDS011;39148;53.332;6.922;2023-07-20T14:05:34;1.52;;;0.30;;
53253;SDS011;39148;53.332;6.922;2023-07-20T14:08:00;2.03;;;0.30;;
53253;SDS011;39148;53.332;6.922;2023-07-20T14:10:26;1.70;;;0.40;;
53253;SDS011;39148;53.332;6.922;2023-07-20T14:12:51;1.30;;;0.40;;
53253;SDS011;39148;53.332;6.922;2023-07-20T14:15:17;2.28;;;0.43;;
53253;SDS011;39148;53.332;6.922;2023-07-20T14:17:44;1.23;;;0.30;;
53253;SDS011;39148;53.332;6.922;2023-07-20T14:20:10;1.85;;;0.50;;
53253;SDS011;39148;53.332;6.922;2023-07-20T14:22:36;1.50;;;0.22;;
53253;SDS011;39148;53.332;6.922;2023-07-20T14:25:02;1.23;;;0.40;;
53253;SDS011;39148;53.332;6.922;2023-07-20T14:27:28;1.90;;;0.40;;
53253;SDS011;39148;53.332;6.922;2023-07-20T14:29:53;1.75;;;0.60;;
53253;SDS011;39148;53.332;6.922;2023-07-20T14:32:20;3.88;;;0.40;;
53253;SDS011;39148;53.332;6.922;2023-07-20T14:34:45;2.17;;;0.38;;
53253;SDS011;39148;53.332;6.922;2023-07-20T14:37:11;1.77;;;0.32;;
53253;SDS011;39148;53.332;6.922;2023-07-20T14:39:38;1.85;;;0.30;;
53253;SDS011;39148;53.332;6.922;2023-07-20T14:42:04;2.63;;;0.40;;
53253;SDS011;39148;53.332;6.922;2023-07-20T14:44:30;1.83;;;0.22;;
53253;SDS011;39148;53.332;6.922;2023-07-20T14:46:55;1.77;;;0.40;;
53253;SDS011;39148;53.332;6.922;2023-07-20T14:49:21;1.80;;;0.55;;
53253;SDS011;39148;53.332;6.922;2023-07-20T14:51:47;0.90;;;0.40;;
53253;SDS011;39148;53.332;6.922;2023-07-20T14:54:14;1.40;;;0.38;;
53253;SDS011;39148;53.332;6.922;2023-07-20T14:56:46;2.17;;;0.50;;
53253;SDS011;39148;53.332;6.922;2023-07-20T14:59:16;1.55;;;0.40;;